createdAt,value
2022-08-16T00:00:24.764Z,999.80
2022-08-16T00:01:25.066Z,999.81
2022-08-16T00:02:24.768Z,999.84
2022-08-16T00:03:24.740Z,999.81
2022-08-16T00:04:24.716Z,999.83
2022-08-16T00:05:24.709Z,999.83
2022-08-16T00:06:24.741Z,999.80
2022-08-16T00:07:24.692Z,999.80
2022-08-16T00:08:36.088Z,999.81
2022-08-16T00:09:25.680Z,999.83
2022-08-16T00:10:24.653Z,999.80
2022-08-16T00:11:24.688Z,999.85
2022-08-16T00:12:24.640Z,999.87
2022-08-16T00:13:24.633Z,999.86
2022-08-16T00:14:24.607Z,999.85
2022-08-16T00:15:24.593Z,999.82
2022-08-16T00:17:05.736Z,999.83
2022-08-16T00:17:25.576Z,999.86
2022-08-16T00:18:28.659Z,999.89
2022-08-16T00:19:28.323Z,999.88
2022-08-16T00:20:24.553Z,999.90
2022-08-16T00:21:24.581Z,999.87
2022-08-16T00:22:24.681Z,999.87
2022-08-16T00:23:34.346Z,999.88
2022-08-16T00:24:30.927Z,999.86
2022-08-16T00:26:33.880Z,999.83
2022-08-16T00:26:34.926Z,999.87
2022-08-16T00:27:25.466Z,999.84
2022-08-16T00:28:28.498Z,999.82
2022-08-16T00:29:24.464Z,999.86
2022-08-16T00:30:29.112Z,999.84
2022-08-16T00:31:24.495Z,999.81
2022-08-16T00:32:24.413Z,999.77
2022-08-16T00:33:24.399Z,999.75
2022-08-16T00:34:44.299Z,999.78
2022-08-16T00:35:25.384Z,999.72
2022-08-16T00:36:24.369Z,999.74
2022-08-16T00:37:25.123Z,999.75
2022-08-16T00:38:41.193Z,999.73
2022-08-16T00:39:25.363Z,999.75
2022-08-16T00:40:26.569Z,999.72
2022-08-16T00:41:25.311Z,999.75
2022-08-16T00:42:29.993Z,999.77
2022-08-16T00:43:25.292Z,999.80
2022-08-16T00:44:31.945Z,999.88
2022-08-16T00:45:25.307Z,999.90
2022-08-16T00:46:34.789Z,999.98
2022-08-16T00:47:25.298Z,999.99
2022-08-16T00:48:31.328Z,1000.01
2022-08-16T00:49:25.223Z,1000.04
2022-08-16T00:50:36.352Z,1000.02
2022-08-16T00:51:25.190Z,1000.02
2022-08-16T00:52:29.973Z,1000.03
2022-08-16T00:53:25.168Z,1000.03
2022-08-16T00:54:24.150Z,1000.02
2022-08-16T00:55:24.141Z,999.98
2022-08-16T00:56:57.989Z,1000.00
2022-08-16T00:57:25.163Z,1000.00
2022-08-16T00:58:34.421Z,999.99
2022-08-16T00:59:25.089Z,1000.01
2022-08-16T01:00:24.092Z,1000.04
2022-08-16T01:01:24.144Z,1000.09
2022-08-16T01:02:31.339Z,1000.02
2022-08-16T01:03:30.311Z,1000.03
2022-08-16T01:04:29.724Z,1000.01
2022-08-16T01:05:25.055Z,1000.03
2022-08-16T01:06:39.564Z,1000.02
2022-08-16T01:07:25.058Z,1000.04
2022-08-16T01:08:35.813Z,1000.02
2022-08-16T01:09:24.975Z,1000.03
2022-08-16T01:10:32.181Z,1000.02
2022-08-16T01:11:24.957Z,1000.01
2022-08-16T01:12:26.631Z,999.98
2022-08-16T01:13:23.937Z,1000.00
2022-08-16T01:14:29.772Z,1000.04
2022-08-16T01:15:24.914Z,1000.01
2022-08-16T01:16:23.902Z,1000.06
2022-08-16T01:17:24.241Z,1000.03
2022-08-16T01:18:40.695Z,1000.06
2022-08-16T01:19:24.869Z,1000.09
2022-08-16T01:20:30.115Z,1000.13
2022-08-16T01:21:24.841Z,1000.12
2022-08-16T01:22:49.743Z,1000.14
2022-08-16T01:23:24.819Z,1000.16
2022-08-16T01:24:52.398Z,1000.12
2022-08-16T01:25:34.098Z,1000.13
2022-08-16T01:26:34.535Z,1000.07
2022-08-16T01:27:24.803Z,1000.06
2022-08-16T01:28:23.757Z,1000.07
2022-08-16T01:29:49.614Z,1000.05
2022-08-16T01:30:26.339Z,1000.07
2022-08-16T01:31:23.727Z,1000.07
2022-08-16T01:32:31.950Z,1000.09
2022-08-16T01:33:24.698Z,1000.08
2022-08-16T01:34:26.547Z,1000.08
2022-08-16T01:35:23.682Z,1000.10
2022-08-16T01:36:23.671Z,1000.07
2022-08-16T01:37:23.708Z,1000.06
2022-08-16T01:38:25.616Z,1000.07
2022-08-16T01:39:23.679Z,1000.08
2022-08-16T01:40:23.624Z,1000.02
2022-08-16T01:41:23.789Z,1000.06
2022-08-16T01:42:23.643Z,1000.09
2022-08-16T01:43:23.594Z,1000.01
2022-08-16T01:44:23.581Z,1000.05
2022-08-16T01:45:24.562Z,1000.09
2022-08-16T01:46:29.468Z,1000.07
2022-08-16T01:47:24.599Z,1000.15
2022-08-16T01:48:23.558Z,1000.10
2022-08-16T01:49:23.525Z,1000.16
2022-08-16T01:50:42.456Z,1000.19
2022-08-16T01:51:24.500Z,1000.21
2022-08-16T01:52:29.191Z,1000.16
2022-08-16T01:53:24.470Z,1000.15
2022-08-16T01:54:30.514Z,1000.14
2022-08-16T01:55:24.462Z,1000.14
2022-08-16T01:56:24.769Z,1000.10
2022-08-16T01:57:23.463Z,1000.08
2022-08-16T01:58:23.418Z,1000.05
2022-08-16T01:59:23.402Z,1000.09
2022-08-16T02:00:29.133Z,1000.07
2022-08-16T02:01:25.961Z,1000.06
2022-08-16T02:02:27.328Z,1000.08
2022-08-16T02:03:26.561Z,1000.07
2022-08-16T02:04:48.054Z,1000.07
2022-08-16T02:05:24.331Z,1000.06
2022-08-16T02:06:34.686Z,1000.04
2022-08-16T02:07:24.462Z,1000.01
2022-08-16T02:08:32.664Z,1000.02
2022-08-16T02:09:24.284Z,1000.02
2022-08-16T02:10:24.278Z,1000.00
2022-08-16T02:11:23.269Z,999.99
2022-08-16T02:12:42.107Z,1000.04
2022-08-16T02:13:27.807Z,1000.05
2022-08-16T02:14:26.291Z,1000.06
2022-08-16T02:15:24.910Z,1000.08
2022-08-16T02:16:23.215Z,1000.06
2022-08-16T02:17:23.206Z,1000.05
2022-08-16T02:18:23.230Z,1000.05
2022-08-16T02:19:23.174Z,1000.02
2022-08-16T02:20:26.211Z,1000.03
2022-08-16T02:21:31.071Z,1000.02
2022-08-16T02:22:34.252Z,1000.04
2022-08-16T02:23:24.130Z,1000.02
2022-08-16T02:24:32.105Z,1000.03
2022-08-16T02:25:24.126Z,1000.02
2022-08-16T02:26:23.106Z,1000.03
2022-08-16T02:27:23.086Z,1000.03
2022-08-16T02:28:23.687Z,1000.04
2022-08-16T02:29:23.051Z,1000.00
2022-08-16T02:30:36.794Z,999.99
2022-08-16T02:32:03.558Z,1000.04
2022-08-16T02:32:49.031Z,1000.03
2022-08-16T02:33:24.779Z,1000.01
2022-08-16T02:34:33.010Z,1000.02
2022-08-16T02:35:23.991Z,1000.03
2022-08-16T02:36:47.431Z,1000.03
2022-08-16T02:37:23.976Z,1000.07
2022-08-16T02:38:24.144Z,1000.07
2022-08-16T02:39:23.098Z,1000.10
2022-08-16T02:40:22.944Z,1000.10
2022-08-16T02:41:22.936Z,1000.13
2022-08-16T02:42:22.914Z,1000.15
2022-08-16T02:43:27.210Z,1000.21
2022-08-16T02:44:22.895Z,1000.19
2022-08-16T02:45:24.807Z,1000.20
2022-08-16T02:46:29.993Z,1000.24
2022-08-16T02:47:25.369Z,1000.22
2022-08-16T02:48:28.298Z,1000.23
2022-08-16T02:49:32.226Z,1000.24
2022-08-16T02:50:53.660Z,1000.26
2022-08-16T02:51:23.804Z,1000.27
2022-08-16T02:52:29.241Z,1000.25
2022-08-16T02:53:23.870Z,1000.24
2022-08-16T02:54:23.924Z,1000.25
2022-08-16T02:55:41.137Z,1000.24
2022-08-16T02:56:23.753Z,1000.19
2022-08-16T02:57:23.735Z,1000.23
2022-08-16T02:58:25.105Z,1000.26
2022-08-16T02:59:22.716Z,1000.27
2022-08-16T03:00:33.889Z,1000.26
2022-08-16T03:01:24.357Z,1000.31
2022-08-16T03:02:32.111Z,1000.30
2022-08-16T03:03:23.701Z,1000.32
2022-08-16T03:04:46.384Z,1000.28
2022-08-16T03:05:23.635Z,1000.34
2022-08-16T03:06:39.003Z,1000.32
2022-08-16T03:07:27.539Z,1000.35
2022-08-16T03:08:49.712Z,1000.30
2022-08-16T03:09:23.598Z,1000.36
2022-08-16T03:10:22.585Z,1000.36
2022-08-16T03:11:23.580Z,1000.39
2022-08-16T03:12:30.300Z,1000.37
2022-08-16T03:13:23.595Z,1000.36
2022-08-16T03:14:24.687Z,1000.44
2022-08-16T03:15:22.530Z,1000.45
2022-08-16T03:16:38.060Z,1000.46
2022-08-16T03:17:23.509Z,1000.52
2022-08-16T03:18:34.732Z,1000.50
2022-08-16T03:19:23.481Z,1000.52
2022-08-16T03:20:32.310Z,1000.55
2022-08-16T03:21:23.458Z,1000.57
2022-08-16T03:22:28.216Z,1000.56
2022-08-16T03:23:23.481Z,1000.56
2022-08-16T03:24:28.711Z,1000.57
2022-08-16T03:25:23.408Z,1000.56
2022-08-16T03:26:22.410Z,1000.58
2022-08-16T03:27:22.389Z,1000.66
2022-08-16T03:28:22.435Z,1000.60
2022-08-16T03:29:22.367Z,1000.62
2022-08-16T03:30:22.364Z,1000.63
2022-08-16T03:31:22.337Z,1000.64
2022-08-16T03:32:22.329Z,1000.67
2022-08-16T03:33:22.356Z,1000.64
2022-08-16T03:34:22.298Z,1000.59
2022-08-16T03:35:22.294Z,1000.66
2022-08-16T03:36:31.293Z,1000.65
2022-08-16T03:37:23.273Z,1000.65
2022-08-16T03:38:32.471Z,1000.65
2022-08-16T03:39:23.279Z,1000.63
2022-08-16T03:40:31.436Z,1000.70
2022-08-16T03:41:25.573Z,1000.71
2022-08-16T03:42:23.354Z,1000.66
2022-08-16T03:43:22.245Z,1000.65
2022-08-16T03:44:44.064Z,1000.63
2022-08-16T03:45:27.227Z,1000.67
2022-08-16T03:46:47.281Z,1000.68
2022-08-16T03:47:23.153Z,1000.69
2022-08-16T03:48:36.577Z,1000.71
2022-08-16T03:49:23.128Z,1000.67
2022-08-16T03:50:26.037Z,1000.69
2022-08-16T03:51:23.782Z,1000.75
2022-08-16T03:52:23.412Z,1000.77
2022-08-16T03:53:22.136Z,1000.75
2022-08-16T03:54:22.086Z,1000.73
2022-08-16T03:55:22.065Z,1000.73
2022-08-16T03:56:23.061Z,1000.69
2022-08-16T03:57:22.065Z,1000.72
2022-08-16T03:58:22.042Z,1000.70
2022-08-16T03:59:22.056Z,1000.73
2022-08-16T04:00:36.314Z,1000.69
2022-08-16T04:01:23.091Z,1000.70
2022-08-16T04:02:31.206Z,1000.67
2022-08-16T04:03:22.966Z,1000.72
2022-08-16T04:04:30.943Z,1000.77
2022-08-16T04:05:22.941Z,1000.77
2022-08-16T04:06:21.931Z,1000.78
2022-08-16T04:07:21.924Z,1000.82
2022-08-16T04:08:24.078Z,1000.83
2022-08-16T04:09:21.951Z,1000.75
2022-08-16T04:10:36.351Z,1000.72
2022-08-16T04:11:23.612Z,1000.73
2022-08-16T04:12:52.501Z,1000.77
2022-08-16T04:14:01.336Z,1000.81
2022-08-16T04:14:31.046Z,1000.84
2022-08-16T04:15:22.832Z,1000.82
2022-08-16T04:16:27.228Z,1000.83
2022-08-16T04:17:24.283Z,1000.81
2022-08-16T04:18:21.807Z,1000.85
2022-08-16T04:19:21.840Z,1000.87
2022-08-16T04:20:31.430Z,1000.83
2022-08-16T04:21:29.637Z,1000.85
2022-08-16T04:22:22.749Z,1000.85
2022-08-16T04:23:22.737Z,1000.87
2022-08-16T04:24:21.769Z,1000.90
2022-08-16T04:25:22.765Z,1000.90
2022-08-16T04:26:21.708Z,1000.90
2022-08-16T04:27:21.693Z,1000.92
2022-08-16T04:28:29.269Z,1000.89
2022-08-16T04:29:24.894Z,1000.81
2022-08-16T04:30:31.889Z,1000.82
2022-08-16T04:31:22.648Z,1000.87
2022-08-16T04:32:21.638Z,1000.87
2022-08-16T04:33:26.995Z,1000.88
2022-08-16T04:34:22.613Z,1000.94
2022-08-16T04:35:21.589Z,1000.92
2022-08-16T04:36:21.586Z,1000.91
2022-08-16T04:37:21.568Z,1000.92
2022-08-16T04:38:21.691Z,1000.93
2022-08-16T04:39:24.035Z,1000.97
2022-08-16T04:40:25.194Z,1000.98
2022-08-16T04:41:24.635Z,1000.96
2022-08-16T04:42:25.826Z,1000.91
2022-08-16T04:43:21.554Z,1000.94
2022-08-16T04:44:32.965Z,1000.98
2022-08-16T04:45:36.432Z,1001.01
2022-08-16T04:47:03.416Z,1001.02
2022-08-16T04:47:24.241Z,1001.07
2022-08-16T04:48:21.973Z,1001.01
2022-08-16T04:49:22.491Z,1001.04
2022-08-16T04:50:21.428Z,1001.04
2022-08-16T04:51:21.419Z,1001.01
2022-08-16T04:52:34.620Z,1001.05
2022-08-16T04:53:22.387Z,1001.06
2022-08-16T04:54:21.432Z,1001.06
2022-08-16T04:55:21.367Z,1001.04
2022-08-16T04:56:22.364Z,1001.09
2022-08-16T04:57:21.343Z,1001.06
2022-08-16T04:58:43.561Z,1001.09
2022-08-16T04:59:22.370Z,1001.12
2022-08-16T05:00:32.349Z,1001.06
2022-08-16T05:01:22.341Z,1001.06
2022-08-16T05:02:42.008Z,1001.09
2022-08-16T05:03:22.434Z,1001.06
2022-08-16T05:04:21.314Z,1001.12
2022-08-16T05:05:21.254Z,1001.12
2022-08-16T05:06:21.246Z,1001.16
2022-08-16T05:07:22.232Z,1001.14
2022-08-16T05:08:29.425Z,1001.15
2022-08-16T05:09:22.955Z,1001.13
2022-08-16T05:10:22.922Z,1001.16
2022-08-16T05:11:21.204Z,1001.10
2022-08-16T05:12:22.307Z,1001.10
2022-08-16T05:13:22.181Z,1001.12
2022-08-16T05:14:45.429Z,1001.13
2022-08-16T05:15:22.132Z,1001.15
2022-08-16T05:16:22.890Z,1001.16
2022-08-16T05:17:24.735Z,1001.19
2022-08-16T05:18:23.383Z,1001.25
2022-08-16T05:19:22.130Z,1001.21
2022-08-16T05:20:39.403Z,1001.26
2022-08-16T05:21:22.143Z,1001.19
2022-08-16T05:22:21.086Z,1001.22
2022-08-16T05:23:21.194Z,1001.26
2022-08-16T05:24:22.068Z,1001.19
2022-08-16T05:25:21.020Z,1001.19
2022-08-16T05:26:21.008Z,1001.21
2022-08-16T05:27:21.015Z,1001.22
2022-08-16T05:28:20.982Z,1001.21
2022-08-16T05:29:21.047Z,1001.21
2022-08-16T05:30:34.765Z,1001.22
2022-08-16T05:31:21.971Z,1001.28
2022-08-16T05:32:31.964Z,1001.29
2022-08-16T05:33:21.927Z,1001.31
2022-08-16T05:34:20.969Z,1001.34
2022-08-16T05:35:21.026Z,1001.34
2022-08-16T05:36:21.074Z,1001.34
2022-08-16T05:37:20.879Z,1001.32
2022-08-16T05:38:32.249Z,1001.32
2022-08-16T05:39:22.393Z,1001.36
2022-08-16T05:40:20.875Z,1001.31
2022-08-16T05:41:20.856Z,1001.34
2022-08-16T05:42:20.832Z,1001.35
2022-08-16T05:43:21.814Z,1001.38
2022-08-16T05:44:23.877Z,1001.35
2022-08-16T05:45:21.977Z,1001.38
2022-08-16T05:46:30.013Z,1001.41
2022-08-16T05:47:21.788Z,1001.43
2022-08-16T05:48:20.765Z,1001.40
2022-08-16T05:49:22.626Z,1001.37
2022-08-16T05:50:20.745Z,1001.37
2022-08-16T05:51:35.246Z,1001.39
2022-08-16T05:52:21.710Z,1001.37
2022-08-16T05:53:24.202Z,1001.46
2022-08-16T05:54:25.059Z,1001.48
2022-08-16T05:55:21.688Z,1001.50
2022-08-16T05:56:20.681Z,1001.48
2022-08-16T05:57:20.808Z,1001.49
2022-08-16T05:58:33.192Z,1001.49
2022-08-16T05:59:22.025Z,1001.49
2022-08-16T06:00:22.606Z,1001.50
2022-08-16T06:01:20.679Z,1001.49
2022-08-16T06:02:20.597Z,1001.52
2022-08-16T06:03:20.590Z,1001.56
2022-08-16T06:04:36.022Z,1001.59
2022-08-16T06:05:21.583Z,1001.59
2022-08-16T06:06:28.000Z,1001.60
2022-08-16T06:07:24.991Z,1001.62
2022-08-16T06:08:31.875Z,1001.62
2022-08-16T06:09:21.572Z,1001.65
2022-08-16T06:10:32.522Z,1001.64
2022-08-16T06:11:21.499Z,1001.67
2022-08-16T06:12:26.770Z,1001.70
2022-08-16T06:13:21.478Z,1001.67
2022-08-16T06:14:20.709Z,1001.69
2022-08-16T06:15:20.466Z,1001.72
2022-08-16T06:16:20.456Z,1001.75
2022-08-16T06:17:21.645Z,1001.78
2022-08-16T06:18:20.426Z,1001.75
2022-08-16T06:19:21.463Z,1001.78
2022-08-16T06:20:24.240Z,1001.77
2022-08-16T06:21:23.589Z,1001.78
2022-08-16T06:22:38.986Z,1001.80
2022-08-16T06:23:21.578Z,1001.81
2022-08-16T06:24:54.745Z,1001.80
2022-08-16T06:25:35.437Z,1001.76
2022-08-16T06:26:21.332Z,1001.79
2022-08-16T06:27:20.310Z,1001.80
2022-08-16T06:28:36.342Z,1001.78
2022-08-16T06:29:21.341Z,1001.85
2022-08-16T06:30:20.287Z,1001.85
2022-08-16T06:31:24.585Z,1001.87
2022-08-16T06:32:27.688Z,1001.90
2022-08-16T06:33:22.626Z,1001.87
2022-08-16T06:34:55.703Z,1001.88
2022-08-16T06:35:21.249Z,1001.87
2022-08-16T06:36:20.973Z,1001.88
2022-08-16T06:37:20.212Z,1001.85
2022-08-16T06:38:32.595Z,1001.85
2022-08-16T06:39:21.235Z,1001.88
2022-08-16T06:40:20.167Z,1001.89
2022-08-16T06:41:20.147Z,1001.82
2022-08-16T06:42:20.146Z,1001.78
2022-08-16T06:43:20.142Z,1001.76
2022-08-16T06:44:21.617Z,1001.75
2022-08-16T06:45:20.158Z,1001.84
2022-08-16T06:46:20.115Z,1001.86
2022-08-16T06:47:20.099Z,1001.85
2022-08-16T06:48:20.100Z,1001.86
2022-08-16T06:49:21.131Z,1001.84
2022-08-16T06:50:22.049Z,1001.89
2022-08-16T06:51:21.056Z,1001.91
2022-08-16T06:52:57.736Z,1001.97
2022-08-16T06:53:21.031Z,1001.94
2022-08-16T06:54:20.056Z,1002.02
2022-08-16T06:55:20.024Z,1001.98
2022-08-16T06:56:23.682Z,1001.97
2022-08-16T06:57:19.978Z,1002.00
2022-08-16T06:58:22.003Z,1002.00
2022-08-16T06:59:20.015Z,1002.01
2022-08-16T07:00:24.179Z,1002.00
2022-08-16T07:01:25.175Z,1001.95
2022-08-16T07:02:32.784Z,1001.99
2022-08-16T07:03:27.601Z,1001.98
2022-08-16T07:04:32.544Z,1001.95
2022-08-16T07:05:20.910Z,1001.96
2022-08-16T07:06:21.853Z,1001.97
2022-08-16T07:07:20.897Z,1001.93
2022-08-16T07:08:19.876Z,1001.96
2022-08-16T07:09:19.902Z,1002.00
2022-08-16T07:10:19.844Z,1002.00
2022-08-16T07:11:20.832Z,1001.96
2022-08-16T07:12:20.795Z,1001.97
2022-08-16T07:13:43.932Z,1001.98
2022-08-16T07:14:24.298Z,1001.98
2022-08-16T07:15:19.782Z,1001.95
2022-08-16T07:16:20.773Z,1001.99
2022-08-16T07:17:19.767Z,1001.99
2022-08-16T07:18:19.788Z,1002.00
2022-08-16T07:19:19.751Z,1002.01
2022-08-16T07:20:34.890Z,1001.93
2022-08-16T07:21:20.740Z,1001.93
2022-08-16T07:22:37.906Z,1001.92
2022-08-16T07:23:20.747Z,1001.97
2022-08-16T07:24:29.633Z,1001.91
2022-08-16T07:25:20.663Z,1001.96
2022-08-16T07:26:25.230Z,1001.98
2022-08-16T07:27:20.661Z,1001.96
2022-08-16T07:28:20.660Z,1002.01
2022-08-16T07:29:19.650Z,1002.03
2022-08-16T07:30:45.686Z,1001.98
2022-08-16T07:31:20.645Z,1002.01
2022-08-16T07:32:19.602Z,1002.06
2022-08-16T07:33:52.821Z,1002.09
2022-08-16T07:34:20.580Z,1002.05
2022-08-16T07:35:20.552Z,1002.08
2022-08-16T07:36:21.858Z,1002.07
2022-08-16T07:37:23.104Z,1002.08
2022-08-16T07:38:20.153Z,1002.08
2022-08-16T07:39:20.509Z,1002.07
2022-08-16T07:40:27.885Z,1002.08
2022-08-16T07:41:20.497Z,1002.07
2022-08-16T07:42:20.157Z,1002.11
2022-08-16T07:43:20.532Z,1002.12
2022-08-16T07:44:19.476Z,1002.08
2022-08-16T07:45:19.456Z,1002.11
2022-08-16T07:46:37.580Z,1002.13
2022-08-16T07:47:24.423Z,1002.14
2022-08-16T07:48:19.477Z,1002.15
2022-08-16T07:49:19.414Z,1002.14
2022-08-16T07:50:55.942Z,1002.17
2022-08-16T07:51:20.379Z,1002.22
2022-08-16T07:52:20.382Z,1002.27
2022-08-16T07:53:19.369Z,1002.24
2022-08-16T07:54:21.307Z,1002.27
2022-08-16T07:55:20.353Z,1002.26
2022-08-16T07:56:19.388Z,1002.23
2022-08-16T07:57:19.332Z,1002.26
2022-08-16T07:58:33.697Z,1002.37
2022-08-16T07:59:20.367Z,1002.32
2022-08-16T08:00:19.279Z,1002.34
2022-08-16T08:01:19.344Z,1002.36
2022-08-16T08:02:21.057Z,1002.36
2022-08-16T08:03:19.246Z,1002.37
2022-08-16T08:04:19.289Z,1002.40
2022-08-16T08:05:26.162Z,1002.40
2022-08-16T08:06:20.227Z,1002.40
2022-08-16T08:07:19.215Z,1002.40
2022-08-16T08:08:50.670Z,1002.44
2022-08-16T08:09:20.229Z,1002.46
2022-08-16T08:10:29.633Z,1002.48
2022-08-16T08:11:21.331Z,1002.48
2022-08-16T08:12:31.550Z,1002.51
2022-08-16T08:13:20.140Z,1002.52
2022-08-16T08:14:29.800Z,1002.52
2022-08-16T08:15:25.163Z,1002.48
2022-08-16T08:16:20.096Z,1002.50
2022-08-16T08:17:19.110Z,1002.48
2022-08-16T08:18:30.373Z,1002.50
2022-08-16T08:19:20.116Z,1002.52
2022-08-16T08:20:26.306Z,1002.52
2022-08-16T08:21:26.204Z,1002.56
2022-08-16T08:22:22.055Z,1002.54
2022-08-16T08:23:19.033Z,1002.56
2022-08-16T08:24:19.071Z,1002.57
2022-08-16T08:25:19.124Z,1002.62
2022-08-16T08:26:19.016Z,1002.62
2022-08-16T08:27:23.046Z,1002.61
2022-08-16T08:28:19.957Z,1002.58
2022-08-16T08:29:23.015Z,1002.60
2022-08-16T08:30:50.223Z,1002.62
2022-08-16T08:31:19.952Z,1002.63
2022-08-16T08:32:59.760Z,1002.59
2022-08-16T08:33:19.924Z,1002.57
2022-08-16T08:34:18.956Z,1002.59
2022-08-16T08:35:18.933Z,1002.56
2022-08-16T08:36:22.114Z,1002.55
2022-08-16T08:37:18.887Z,1002.58
2022-08-16T08:38:44.241Z,1002.62
2022-08-16T08:39:20.784Z,1002.63
2022-08-16T08:40:18.971Z,1002.65
2022-08-16T08:41:27.309Z,1002.62
2022-08-16T08:42:25.131Z,1002.66
2022-08-16T08:43:19.844Z,1002.62
2022-08-16T08:44:28.732Z,1002.62
2022-08-16T08:45:43.028Z,1002.61
2022-08-16T08:46:21.632Z,1002.59
2022-08-16T08:47:18.803Z,1002.65
2022-08-16T08:48:34.455Z,1002.56
2022-08-16T08:49:19.821Z,1002.58
2022-08-16T08:50:31.979Z,1002.64
2022-08-16T08:51:19.763Z,1002.60
2022-08-16T08:52:34.890Z,1002.64
2022-08-16T08:53:19.718Z,1002.63
2022-08-16T08:54:20.746Z,1002.56
2022-08-16T08:55:18.700Z,1002.57
2022-08-16T08:56:23.529Z,1002.65
2022-08-16T08:57:19.679Z,1002.66
2022-08-16T08:58:18.654Z,1002.63
2022-08-16T08:59:20.153Z,1002.68
2022-08-16T09:00:21.376Z,1002.67
2022-08-16T09:01:18.628Z,1002.69
2022-08-16T09:02:19.712Z,1002.66
2022-08-16T09:03:18.621Z,1002.67
2022-08-16T09:04:18.684Z,1002.62
2022-08-16T09:05:18.581Z,1002.67
2022-08-16T09:06:18.688Z,1002.67
2022-08-16T09:07:18.566Z,1002.61
2022-08-16T09:08:18.558Z,1002.62
2022-08-16T09:09:18.581Z,1002.65
2022-08-16T09:10:20.310Z,1002.66
2022-08-16T09:11:18.560Z,1002.64
2022-08-16T09:12:35.860Z,1002.70
2022-08-16T09:13:19.495Z,1002.67
2022-08-16T09:14:23.961Z,1002.70
2022-08-16T09:15:21.506Z,1002.75
2022-08-16T09:17:02.723Z,1002.74
2022-08-16T09:17:45.517Z,1002.71
2022-08-16T09:18:26.583Z,1002.75
2022-08-16T09:19:19.480Z,1002.75
2022-08-16T09:20:19.997Z,1002.72
2022-08-16T09:21:18.442Z,1002.70
2022-08-16T09:22:20.984Z,1002.72
2022-08-16T09:23:18.562Z,1002.74
2022-08-16T09:24:35.166Z,1002.73
2022-08-16T09:25:25.898Z,1002.70
2022-08-16T09:26:46.068Z,1002.75
2022-08-16T09:27:19.351Z,1002.63
2022-08-16T09:29:13.848Z,1002.65
2022-08-16T09:29:23.641Z,1002.73
2022-08-16T09:30:31.772Z,1002.73
2022-08-16T09:31:19.349Z,1002.70
2022-08-16T09:32:28.628Z,1002.70
2022-08-16T09:33:19.691Z,1002.69
2022-08-16T09:34:19.288Z,1002.68
2022-08-16T09:35:18.277Z,1002.70
2022-08-16T09:36:32.017Z,1002.71
2022-08-16T09:37:19.825Z,1002.68
2022-08-16T09:38:31.353Z,1002.66
2022-08-16T09:39:19.299Z,1002.59
2022-08-16T09:40:33.110Z,1002.59
2022-08-16T09:41:19.210Z,1002.58
2022-08-16T09:42:19.022Z,1002.57
2022-08-16T09:43:53.247Z,1002.55
2022-08-16T09:45:13.191Z,1002.58
2022-08-16T09:45:19.190Z,1002.56
2022-08-16T09:46:45.576Z,1002.55
2022-08-16T09:47:19.150Z,1002.60
2022-08-16T09:48:36.862Z,1002.59
2022-08-16T09:49:19.962Z,1002.60
2022-08-16T09:50:23.021Z,1002.64
2022-08-16T09:51:19.159Z,1002.57
2022-08-16T09:52:18.129Z,1002.55
2022-08-16T09:53:18.089Z,1002.59
2022-08-16T09:54:20.895Z,1002.62
2022-08-16T09:55:18.139Z,1002.62
2022-08-16T09:56:18.080Z,1002.58
2022-08-16T09:57:18.068Z,1002.62
2022-08-16T09:58:41.318Z,1002.55
2022-08-16T09:59:19.037Z,1002.62
2022-08-16T10:00:42.295Z,1002.55
2022-08-16T10:01:19.029Z,1002.60
2022-08-16T10:02:25.837Z,1002.55
2022-08-16T10:03:19.074Z,1002.52
2022-08-16T10:04:31.412Z,1002.53
2022-08-16T10:05:19.054Z,1002.55
2022-08-16T10:06:18.001Z,1002.60
2022-08-16T10:07:17.956Z,1002.56
2022-08-16T10:08:25.364Z,1002.50
2022-08-16T10:09:18.940Z,1002.51
2022-08-16T10:10:18.654Z,1002.51
2022-08-16T10:11:23.933Z,1002.50
2022-08-16T10:12:19.862Z,1002.46
2022-08-16T10:13:17.889Z,1002.51
2022-08-16T10:14:17.887Z,1002.54
2022-08-16T10:15:17.973Z,1002.51
2022-08-16T10:16:18.029Z,1002.48
2022-08-16T10:17:17.944Z,1002.57
2022-08-16T10:18:56.147Z,1002.56
2022-08-16T10:19:19.289Z,1002.55
2022-08-16T10:20:18.682Z,1002.57
2022-08-16T10:21:17.822Z,1002.55
2022-08-16T10:22:17.854Z,1002.56
2022-08-16T10:23:18.799Z,1002.53
2022-08-16T10:24:28.273Z,1002.54
2022-08-16T10:27:17.380Z,1002.55
2022-08-16T10:27:19.264Z,1002.51
2022-08-16T10:27:27.224Z,1002.49
2022-08-16T10:28:28.193Z,1002.50
2022-08-16T10:29:19.955Z,1002.54
2022-08-16T10:30:25.676Z,1002.48
2022-08-16T10:31:44.295Z,1002.50
2022-08-16T10:32:21.048Z,1002.41
2022-08-16T10:33:17.711Z,1002.41
2022-08-16T10:34:30.758Z,1002.42
2022-08-16T10:35:18.807Z,1002.43
2022-08-16T10:36:38.740Z,1002.45
2022-08-16T10:37:18.683Z,1002.45
2022-08-16T10:38:27.104Z,1002.42
2022-08-16T10:39:18.654Z,1002.44
2022-08-16T10:40:29.388Z,1002.43
2022-08-16T10:41:23.360Z,1002.45
2022-08-16T10:42:18.644Z,1002.45
2022-08-16T10:43:18.645Z,1002.49
2022-08-16T10:44:17.765Z,1002.46
2022-08-16T10:45:17.633Z,1002.38
2022-08-16T10:46:39.188Z,1002.37
2022-08-16T10:47:18.577Z,1002.32
2022-08-16T10:48:27.073Z,1002.33
2022-08-16T10:49:18.575Z,1002.29
2022-08-16T10:50:19.630Z,1002.32
2022-08-16T10:51:17.636Z,1002.36
2022-08-16T10:52:19.432Z,1002.36
2022-08-16T10:53:17.622Z,1002.39
2022-08-16T10:54:28.663Z,1002.39
2022-08-16T10:56:52.141Z,1002.39
2022-08-16T10:57:18.956Z,1002.38
2022-08-16T10:58:18.891Z,1002.32
2022-08-16T10:59:45.922Z,1002.34
2022-08-16T11:00:19.126Z,1002.14
2022-08-16T11:01:43.411Z,1002.35
2022-08-16T11:02:58.100Z,1002.32
2022-08-16T11:05:18.528Z,1002.34
2022-08-16T11:06:17.432Z,1002.34
2022-08-16T11:08:23.571Z,1002.38
2022-08-16T11:09:24.417Z,1002.36
2022-08-16T11:10:20.233Z,1002.38
2022-08-16T11:11:19.609Z,1002.32
2022-08-16T11:12:17.761Z,1002.34
2022-08-16T11:14:18.948Z,1002.36
2022-08-16T11:15:18.850Z,1002.17
2022-08-16T11:17:18.410Z,1002.26
2022-08-16T11:19:04.361Z,1002.22
2022-08-16T11:19:18.327Z,1002.19
2022-08-16T11:21:29.368Z,1002.25
2022-08-16T11:22:38.790Z,1002.38
2022-08-16T11:23:18.227Z,1002.38
2022-08-16T11:24:39.431Z,1002.41
2022-08-16T11:26:07.840Z,1002.43
2022-08-16T11:26:23.658Z,1002.30
2022-08-16T11:27:20.115Z,1002.37
2022-08-16T11:28:36.454Z,1002.34
2022-08-16T11:29:18.147Z,1002.32
2022-08-16T11:30:21.829Z,1002.36
2022-08-16T11:31:18.185Z,1002.36
2022-08-16T11:32:20.285Z,1002.37
2022-08-16T11:33:18.265Z,1002.32
2022-08-16T11:34:20.794Z,1002.34
2022-08-16T11:35:17.226Z,1002.36
2022-08-16T11:36:27.554Z,1002.35
2022-08-16T11:37:20.044Z,1002.32
2022-08-16T11:38:47.002Z,1002.37
2022-08-16T11:39:18.056Z,1002.34
2022-08-16T11:40:17.069Z,1002.35
2022-08-16T11:41:17.092Z,1002.34
2022-08-16T11:42:29.194Z,1002.36
2022-08-16T11:43:18.010Z,1002.35
2022-08-16T11:44:20.492Z,1002.38
2022-08-16T11:45:18.053Z,1002.51
2022-08-16T11:46:42.965Z,1002.50
2022-08-16T11:47:17.959Z,1002.34
2022-08-16T11:48:16.989Z,1002.46
2022-08-16T11:49:16.959Z,1002.48
2022-08-16T11:50:17.119Z,1002.53
2022-08-16T11:51:16.937Z,1002.48
2022-08-16T11:52:17.464Z,1002.57
2022-08-16T11:53:16.920Z,1002.51
2022-08-16T11:54:20.620Z,1002.48
2022-08-16T11:55:17.970Z,1002.47
2022-08-16T11:56:16.906Z,1002.51
2022-08-16T11:57:17.870Z,1002.47
2022-08-16T11:58:16.861Z,1002.48
2022-08-16T11:59:16.875Z,1002.50
2022-08-16T12:00:44.953Z,1002.49
2022-08-16T12:01:17.846Z,1002.51
2022-08-16T12:02:32.173Z,1002.45
2022-08-16T12:03:18.232Z,1002.51
2022-08-16T12:04:18.010Z,1002.30
2022-08-16T12:05:16.884Z,1002.30
2022-08-16T12:06:24.881Z,1002.37
2022-08-16T12:07:17.774Z,1002.39
2022-08-16T12:08:18.302Z,1002.55
2022-08-16T12:09:16.739Z,1002.34
2022-08-16T12:10:16.772Z,1002.33
2022-08-16T12:11:16.733Z,1002.33
2022-08-16T12:12:18.640Z,1002.45
2022-08-16T12:13:16.737Z,1002.45
2022-08-16T12:14:16.720Z,1002.42